Time;durP1;ratioP1;P1;durP2;ratioP2;P2;SDS_P1;SDS_P2;PMS_P1;PMS_P2;Temp;Humidity;BMP_temperature;BMP_pressure;BME280_temperature;BME280_humidity;BME280_pressure;Samples;Min_cycle;Max_cycle;Signal;HPM_P1;HPM_P2
2022/01/01 00:00:33;;;;;;;10.65;4.30;;;;;;;8.89;76.09;96417.56;5097952;28;20421;-73
2022/01/01 00:03:04;;;;;;;10.75;4.82;;;;;;;8.90;75.59;96415.75;5093721;28;20044;-73
2022/01/01 00:05:30;;;;;;;9.18;4.18;;;;;;;8.88;75.17;96420.44;5103565;28;20118;-73
2022/01/01 00:07:57;;;;;;;10.15;4.60;;;;;;;8.82;76.02;96412.47;5093799;28;20044;-73
2022/01/01 00:10:23;;;;;;;9.30;4.53;;;;;;;9.02;75.10;96416.47;5090234;28;20040;-73
2022/01/01 00:12:48;;;;;;;12.13;5.82;;;;;;;9.13;74.35;96417.44;5089496;28;20051;-73
2022/01/01 00:15:15;;;;;;;8.05;3.92;;;;;;;9.11;74.65;96409.81;5089297;28;20036;-73
2022/01/01 00:17:41;;;;;;;8.55;4.32;;;;;;;9.13;74.15;96418.25;5089936;28;20513;-73
2022/01/01 00:20:09;;;;;;;8.35;3.80;;;;;;;8.98;75.14;96412.75;5100717;28;20043;-74
2022/01/01 00:22:39;;;;;;;7.88;4.18;;;;;;;9.11;74.61;96411.66;5090761;28;20497;-73
2022/01/01 00:25:06;;;;;;;6.35;3.78;;;;;;;8.83;76.61;96408.00;5106129;28;20143;-74
2022/01/01 00:27:33;;;;;;;7.72;3.70;;;;;;;8.92;74.89;96405.81;5109189;28;20040;-73
2022/01/01 00:29:58;;;;;;;6.75;3.38;;;;;;;9.04;74.40;96403.91;5108088;28;20035;-73
2022/01/01 00:32:24;;;;;;;6.25;3.40;;;;;;;8.98;74.52;96410.13;5097146;28;20602;-73
2022/01/01 00:34:50;;;;;;;8.90;3.70;;;;;;;8.80;76.17;96414.53;5088856;28;20089;-73
2022/01/01 00:37:17;;;;;;;7.70;3.50;;;;;;;8.69;75.75;96418.00;5089098;28;20044;-73
2022/01/01 00:39:43;;;;;;;5.50;3.35;;;;;;;8.72;76.34;96420.16;5104104;28;20628;-73
2022/01/01 00:42:08;;;;;;;5.63;3.20;;;;;;;8.65;76.10;96422.13;5104294;28;20035;-73
2022/01/01 00:44:34;;;;;;;7.88;3.38;;;;;;;8.69;76.46;96433.75;5098952;28;20061;-74
2022/01/01 00:46:59;;;;;;;7.13;3.50;;;;;;;8.69;76.26;96433.75;5096511;28;20096;-73
2022/01/01 00:49:26;;;;;;;6.88;3.30;;;;;;;8.55;76.71;96432.41;5089757;28;20044;-73
2022/01/01 00:51:51;;;;;;;7.40;3.45;;;;;;;8.57;76.54;96435.63;5099674;28;20043;-73
2022/01/01 00:54:17;;;;;;;5.28;3.15;;;;;;;8.58;76.62;96450.34;5106812;28;20092;-73
2022/01/01 00:56:42;;;;;;;5.47;2.92;;;;;;;8.76;75.44;96444.88;5098866;28;20052;-73
2022/01/01 00:59:08;;;;;;;9.73;3.45;;;;;;;8.56;76.15;96449.75;5089007;28;20067;-73
2022/01/01 01:01:33;;;;;;;6.00;2.88;;;;;;;8.56;76.82;96455.00;5088689;28;20158;-73
2022/01/01 01:03:59;;;;;;;6.05;2.97;;;;;;;8.54;77.10;96454.47;5088860;28;20127;-73
2022/01/01 01:06:24;;;;;;;5.47;2.90;;;;;;;8.46;77.24;96451.16;5091413;28;20550;-73
2022/01/01 01:08:52;;;;;;;5.47;2.85;;;;;;;8.36;77.91;96456.19;5101969;28;20070;-73
2022/01/01 01:11:17;;;;;;;4.97;2.70;;;;;;;8.25;77.82;96459.63;5085270;28;20093;-73
2022/01/01 01:13:45;;;;;;;5.82;2.85;;;;;;;8.30;77.97;96457.91;5089151;28;20048;-73
2022/01/01 01:16:11;;;;;;;9.05;3.05;;;;;;;8.45;77.10;96454.03;5078768;28;20032;-73
2022/01/01 01:18:37;;;;;;;7.43;3.15;;;;;;;8.37;77.58;96452.50;5091076;28;20417;-73
2022/01/01 01:21:02;;;;;;;5.32;2.90;;;;;;;8.24;78.63;96461.44;5105879;27;20047;-73
2022/01/01 01:23:28;;;;;;;7.63;2.90;;;;;;;8.08;78.89;96470.81;5117420;27;20720;-73
2022/01/01 01:25:56;;;;;;;7.88;3.20;;;;;;;7.94;80.18;96480.75;5096272;28;20048;-73
2022/01/01 01:28:22;;;;;;;5.65;3.30;;;;;;;7.82;79.82;96484.38;5106623;27;20035;-73
2022/01/01 01:30:47;;;;;;;6.22;3.17;;;;;;;7.76;80.43;96486.88;5080955;28;20066;-73
2022/01/01 01:33:13;;;;;;;8.35;3.33;;;;;;;7.57;81.03;96480.13;5088566;28;20463;-73
2022/01/01 01:35:39;;;;;;;6.93;3.00;;;;;;;7.88;79.72;96486.09;5096926;28;20039;-73
2022/01/01 01:38:05;;;;;;;10.27;4.03;;;;;;;8.08;79.13;96491.00;5101684;28;20043;-73
2022/01/01 01:40:31;;;;;;;11.40;4.10;;;;;;;8.12;78.31;96487.66;5097739;28;20032;-72
2022/01/01 01:42:57;;;;;;;8.50;4.00;;;;;;;8.06;78.84;96488.59;5118353;28;20031;-73
2022/01/01 01:45:27;;;;;;;7.75;3.75;;;;;;;7.79;79.69;96499.53;5089559;28;20043;-73
2022/01/01 01:47:53;;;;;;;6.95;3.60;;;;;;;7.63;81.14;96500.19;5109103;28;20043;-73
2022/01/01 01:50:19;;;;;;;6.63;3.80;;;;;;;7.62;81.65;96498.59;5118097;28;20508;-73
2022/01/01 01:52:49;;;;;;;8.10;3.63;;;;;;;7.62;81.44;96498.59;5088397;28;20044;-73
2022/01/01 01:55:15;;;;;;;8.80;3.72;;;;;;;7.59;81.05;96488.56;5088085;28;20036;-73
2022/01/01 01:57:41;;;;;;;12.20;4.00;;;;;;;7.61;80.57;96482.09;5089440;28;20051;-73
2022/01/01 02:02:55;;;;;;;7.68;3.80;;;;;;;7.45;81.85;96488.75;5112338;28;20035;-73
2022/01/01 02:05:21;;;;;;;7.30;3.90;;;;;;;7.28;82.53;96482.56;5097950;28;20554;-73
2022/01/01 02:07:47;;;;;;;10.40;4.03;;;;;;;6.96;83.78;96495.13;5112687;28;20061;-73
2022/01/01 02:10:13;;;;;;;9.00;3.80;;;;;;;6.86;83.89;96490.41;5088226;28;20055;-73
2022/01/01 02:12:41;;;;;;;10.27;4.00;;;;;;;6.44;86.98;96487.69;5087992;28;20052;-73
2022/01/01 02:15:13;;;;;;;8.32;3.85;;;;;;;6.39;86.74;96491.78;5096861;28;20039;-73
2022/01/01 02:17:39;;;;;;;9.13;4.22;;;;;;;6.27;87.81;96493.50;5095545;28;20040;-73
2022/01/01 02:20:11;;;;;;;9.30;3.85;;;;;;;6.16;87.81;96492.41;5105854;28;20413;-73
2022/01/01 02:22:50;;;;;;;8.75;3.88;;;;;;;6.14;88.27;96493.66;5115516;28;20040;-72
2022/01/01 02:25:19;;;;;;;6.50;3.60;;;;;;;6.41;86.53;96492.34;5084628;28;20040;-73
2022/01/01 02:27:45;;;;;;;6.95;3.75;;;;;;;6.36;87.29;96502.63;5105128;28;20394;-73
2022/01/01 02:30:12;;;;;;;9.93;3.80;;;;;;;6.19;88.00;96496.38;5107411;28;20039;-73
2022/01/01 02:32:38;;;;;;;7.40;3.72;;;;;;;6.40;86.74;96488.13;5091517;28;20420;-73
2022/01/01 02:35:06;;;;;;;6.80;3.38;;;;;;;6.45;86.92;96484.06;5091264;28;20089;-73
2022/01/01 02:37:32;;;;;;;7.95;3.20;;;;;;;6.60;86.08;96487.09;5101221;28;20043;-72
2022/01/01 02:39:58;;;;;;;5.97;3.17;;;;;;;6.62;86.08;96485.06;5092158;28;20406;-73
2022/01/01 02:42:24;;;;;;;5.97;3.28;;;;;;;6.73;85.22;96486.13;5093672;27;20073;-73
2022/01/01 02:44:51;;;;;;;8.68;3.80;;;;;;;6.57;86.12;96479.69;5118001;27;20511;-73
2022/01/01 02:47:17;;;;;;;6.35;3.30;;;;;;;6.66;85.73;96486.22;5111247;27;20047;-73
2022/01/01 02:49:43;;;;;;;6.82;2.70;;;;;;;6.68;85.71;96478.97;5105861;28;20043;-73
2022/01/01 02:52:09;;;;;;;5.35;3.00;;;;;;;6.71;85.40;96482.94;5093959;28;20473;-73
2022/01/01 02:54:35;;;;;;;6.13;3.17;;;;;;;6.70;85.27;96471.69;5111534;28;20039;-73
2022/01/01 02:57:00;;;;;;;6.10;2.95;;;;;;;6.76;84.67;96470.78;5104534;28;20039;-73
2022/01/01 02:59:26;;;;;;;7.00;3.13;;;;;;;6.73;85.64;96471.22;5106095;27;20050;-72
2022/01/01 03:01:51;;;;;;;6.18;2.90;;;;;;;6.71;85.82;96477.69;5114303;27;20070;-72
2022/01/01 03:04:17;;;;;;;5.35;2.80;;;;;;;6.76;85.40;96485.69;5114166;27;20043;-73
2022/01/01 03:06:42;;;;;;;5.97;2.78;;;;;;;6.55;85.56;96479.09;5090594;28;20044;-73
2022/01/01 03:09:08;;;;;;;6.40;2.70;;;;;;;6.29;87.07;96486.22;5092114;28;20097;-73
2022/01/01 03:11:34;;;;;;;5.88;2.97;;;;;;;6.15;88.34;96484.75;5092676;28;20054;-73
2022/01/01 03:13:59;;;;;;;4.75;2.78;;;;;;;6.05;87.21;96486.06;5105492;28;20096;-73
2022/01/01 03:16:25;;;;;;;7.57;3.00;;;;;;;6.21;87.97;96489.16;5106901;28;20123;-73
2022/01/01 03:18:52;;;;;;;6.22;3.05;;;;;;;6.06;88.41;96498.13;5090924;28;20658;-73
2022/01/01 03:21:17;;;;;;;5.63;2.90;;;;;;;5.99;88.70;96492.19;5072547;28;20086;-73
2022/01/01 03:23:43;;;;;;;5.22;2.78;;;;;;;5.98;88.77;96495.78;5100128;28;20142;-73
2022/01/01 03:26:09;;;;;;;6.50;2.55;;;;;;;5.86;88.62;96497.47;5103247;28;20097;-73
2022/01/01 03:28:34;;;;;;;4.50;2.50;;;;;;;5.75;89.90;96506.00;5090884;28;20052;-73
2022/01/01 03:31:00;;;;;;;7.47;2.90;;;;;;;5.59;90.19;96502.94;5099379;28;20043;-73
2022/01/01 03:33:25;;;;;;;5.95;3.05;;;;;;;5.48;90.73;96506.22;5110255;28;20048;-73
2022/01/01 03:35:51;;;;;;;6.32;2.90;;;;;;;5.32;91.94;96504.94;5099091;28;20070;-73
2022/01/01 03:38:17;;;;;;;6.43;2.75;;;;;;;5.14;92.52;96516.06;5090385;28;20036;-73
2022/01/01 03:40:43;;;;;;;5.55;2.85;;;;;;;4.93;93.83;96520.59;5090213;28;20105;-73
2022/01/01 03:43:08;;;;;;;6.55;2.65;;;;;;;4.86;93.49;96531.06;5090598;28;20107;-73
2022/01/01 03:45:36;;;;;;;5.85;2.60;;;;;;;4.92;93.53;96523.41;5090825;28;20046;-73
2022/01/01 03:48:05;;;;;;;6.85;2.70;;;;;;;4.82;93.58;96535.09;5095121;28;20047;-73
2022/01/01 03:50:31;;;;;;;6.65;3.28;;;;;;;4.71;95.17;96537.53;5078470;28;20710;-73
2022/01/01 03:52:57;;;;;;;6.15;3.08;;;;;;;4.63;94.64;96536.75;5110134;28;20051;-72
2022/01/01 03:55:22;;;;;;;6.57;3.15;;;;;;;4.59;94.77;96543.41;5100064;28;20058;-73
2022/01/01 03:57:48;;;;;;;7.45;2.88;;;;;;;4.63;94.39;96536.75;5095077;28;20028;-74
2022/01/01 04:00:15;;;;;;;6.35;2.83;;;;;;;4.68;95.29;96550.00;5102020;28;20047;-73
2022/01/01 04:02:40;;;;;;;6.40;2.95;;;;;;;4.68;95.16;96549.19;5109122;28;20544;-73
2022/01/01 04:05:06;;;;;;;5.95;2.95;;;;;;;4.88;94.26;96551.72;5106788;28;20114;-73
2022/01/01 04:07:33;;;;;;;5.72;3.15;;;;;;;4.91;94.38;96548.69;5110892;27;20047;-73
2022/01/01 04:09:59;;;;;;;5.65;2.90;;;;;;;4.92;93.59;96545.06;5107514;28;20119;-74
2022/01/01 04:12:26;;;;;;;7.07;3.08;;;;;;;4.89;94.09;96545.50;5103409;27;20115;-73
2022/01/01 04:14:52;;;;;;;6.13;2.97;;;;;;;4.80;94.54;96541.53;5112494;27;20105;-73
2022/01/01 04:17:18;;;;;;;5.82;2.78;;;;;;;4.78;94.63;96538.31;5101893;27;20055;-73
2022/01/01 04:19:44;;;;;;;8.00;3.30;;;;;;;4.72;95.23;96539.16;5078305;28;20036;-73
2022/01/01 04:22:11;;;;;;;6.35;3.00;;;;;;;4.61;95.89;96544.00;5071551;28;20473;-72
2022/01/01 04:24:38;;;;;;;5.68;2.92;;;;;;;4.46;96.66;96546.03;5109431;27;20039;-72
2022/01/01 04:27:04;;;;;;;6.72;3.42;;;;;;;4.36;96.84;96540.47;5101035;27;20827;-73
2022/01/01 04:29:31;;;;;;;8.00;3.20;;;;;;;4.43;96.04;96530.81;5089567;28;20051;-73
2022/01/01 04:31:59;;;;;;;6.30;2.70;;;;;;;4.41;96.43;96527.59;5097701;28;20056;-75
2022/01/01 04:34:26;;;;;;;6.60;2.88;;;;;;;4.35;96.58;96531.81;5091556;28;20036;-75
2022/01/01 04:37:01;;;;;;;6.32;3.10;;;;;;;4.31;96.48;96526.25;5089686;28;20051;-75
2022/01/01 04:39:26;;;;;;;5.07;2.80;;;;;;;4.20;96.40;96532.06;5089252;28;20040;-75
2022/01/01 04:41:52;;;;;;;5.63;2.80;;;;;;;4.14;96.83;96533.69;5090712;28;20048;-75
2022/01/01 04:44:18;;;;;;;6.60;2.90;;;;;;;3.89;97.90;96536.09;5108437;27;20039;-74
2022/01/01 04:46:43;;;;;;;6.57;2.67;;;;;;;3.91;97.93;96539.31;5099743;27;20461;-75
2022/01/01 04:49:09;;;;;;;8.45;3.00;;;;;;;3.63;99.74;96532.53;5116412;27;20510;-76
2022/01/01 04:51:34;;;;;;;7.75;2.83;;;;;;;3.72;98.84;96543.53;5091834;27;20042;-75
2022/01/01 04:54:02;;;;;;;5.07;2.58;;;;;;;3.53;99.90;96542.50;5102665;27;20062;-75
2022/01/01 04:56:29;;;;;;;5.45;2.55;;;;;;;3.53;99.76;96542.50;5104180;27;20043;-75
2022/01/01 04:58:55;;;;;;;6.75;2.65;;;;;;;3.74;98.58;96543.34;5099201;28;20040;-75
2022/01/01 05:01:21;;;;;;;4.47;2.47;;;;;;;3.61;99.04;96544.13;5105591;28;20046;-76
2022/01/01 05:03:47;;;;;;;7.15;3.03;;;;;;;3.53;100.00;96552.91;5121343;27;20043;-75
2022/01/01 05:06:13;;;;;;;5.75;2.70;;;;;;;3.66;98.96;96557.31;5101262;27;20117;-76
2022/01/01 05:08:39;;;;;;;5.38;2.55;;;;;;;3.66;98.53;96551.34;5088823;28;20056;-75
2022/01/01 05:11:05;;;;;;;5.80;2.70;;;;;;;3.51;99.54;96548.94;5089020;28;20055;-75
2022/01/01 05:13:31;;;;;;;5.88;2.70;;;;;;;3.28;100.00;96550.88;5089014;28;20627;-75
2022/01/01 05:15:56;;;;;;;5.93;2.70;;;;;;;3.19;100.00;96557.28;5103271;28;20043;-75
2022/01/01 05:18:22;;;;;;;4.65;2.47;;;;;;;3.19;100.00;96557.28;5107183;27;20427;-75
2022/01/01 05:20:49;;;;;;;7.25;2.75;;;;;;;3.17;100.00;96559.25;5107560;27;20036;-75
2022/01/01 05:23:15;;;;;;;5.50;2.50;;;;;;;3.17;100.00;96559.25;5109592;27;20044;-75
2022/01/01 05:25:40;;;;;;;4.30;2.50;;;;;;;3.22;99.88;96567.28;5088633;28;20039;-74
2022/01/01 05:28:06;;;;;;;8.07;2.80;;;;;;;3.15;100.00;96561.25;5093410;28;20484;-74
2022/01/01 05:30:32;;;;;;;5.78;2.65;;;;;;;3.00;100.00;96564.00;5088609;28;20117;-75
2022/01/01 05:33:01;;;;;;;6.82;2.97;;;;;;;2.74;100.00;96556.91;5088633;28;20048;-75
2022/01/01 05:35:27;;;;;;;7.07;2.75;;;;;;;2.58;100.00;96561.44;5088236;28;20055;-75
2022/01/01 05:37:52;;;;;;;6.28;2.80;;;;;;;2.81;100.00;96555.13;5108705;28;20052;-75
2022/01/01 05:40:18;;;;;;;9.43;2.78;;;;;;;2.79;100.00;96551.94;5105916;28;20040;-75
2022/01/01 05:42:44;;;;;;;6.15;2.60;;;;;;;2.73;100.00;96555.28;5099525;28;20049;-75
2022/01/01 05:45:10;;;;;;;9.07;2.60;;;;;;;2.81;100.00;96554.34;5104702;28;20412;-76
2022/01/01 05:47:36;;;;;;;6.35;2.80;;;;;;;2.87;100.00;96558.75;5087928;28;20405;-74
2022/01/01 05:50:02;;;;;;;7.28;2.75;;;;;;;2.84;100.00;96554.75;5090741;28;20041;-75
2022/01/01 05:52:28;;;;;;;7.40;2.72;;;;;;;2.91;100.00;96555.56;5070399;28;20048;-75
2022/01/01 05:54:53;;;;;;;6.60;2.88;;;;;;;2.92;100.00;96544.19;5087892;28;20048;-75
2022/01/01 05:57:19;;;;;;;5.57;2.80;;;;;;;2.81;100.00;96544.72;5094491;28;20063;-74
2022/01/01 05:59:44;;;;;;;6.97;2.80;;;;;;;2.84;100.00;96549.53;5098832;28;20047;-75
2022/01/01 06:02:10;;;;;;;5.93;2.55;;;;;;;2.83;100.00;96547.97;5087884;28;20090;-76
2022/01/01 06:04:36;;;;;;;5.70;2.58;;;;;;;2.74;100.00;96552.53;5088260;28;20056;-76
2022/01/01 06:07:02;;;;;;;5.68;2.70;;;;;;;2.79;100.00;96551.94;5112604;28;20123;-74
2022/01/01 06:09:28;;;;;;;5.40;2.67;;;;;;;2.78;100.00;96560.72;5110909;28;20043;-76
2022/01/01 06:11:54;;;;;;;4.30;2.47;;;;;;;2.65;100.00;96558.06;5115656;27;20074;-75
2022/01/01 06:14:21;;;;;;;6.03;2.60;;;;;;;2.45;100.00;96556.16;5106050;27;20040;-75
2022/01/01 06:16:47;;;;;;;8.57;3.08;;;;;;;2.37;100.00;96556.31;5110534;28;20408;-75
2022/01/01 06:19:13;;;;;;;6.15;2.53;;;;;;;2.33;100.00;96552.50;5084156;28;20048;-75
2022/01/01 06:21:39;;;;;;;7.22;3.30;;;;;;;2.37;100.00;96556.31;5099060;27;20047;-75
2022/01/01 06:24:05;;;;;;;5.75;2.90;;;;;;;2.07;100.00;96564.34;5097746;27;20059;-75
2022/01/01 06:26:31;;;;;;;5.00;2.72;;;;;;;1.98;100.00;96560.25;5098966;28;20051;-75
2022/01/01 06:28:56;;;;;;;5.85;2.88;;;;;;;1.96;100.00;96567.44;5091669;28;20040;-75
2022/01/01 06:31:22;;;;;;;7.07;2.92;;;;;;;2.08;100.00;96566.75;5093486;27;20044;-75
2022/01/01 06:33:48;;;;;;;6.63;2.72;;;;;;;2.09;100.00;96567.53;5102219;27;20092;-75
2022/01/01 06:36:14;;;;;;;12.73;3.20;;;;;;;1.96;100.00;96557.84;5109161;27;20119;-75
2022/01/01 06:38:41;;;;;;;12.50;2.92;;;;;;;1.93;100.00;96562.63;5100369;28;20117;-76
2022/01/01 06:41:07;;;;;;;7.20;3.00;;;;;;;2.00;100.00;96558.31;5102133;28;20564;-76
2022/01/01 06:43:32;;;;;;;5.20;2.67;;;;;;;2.08;100.00;96560.72;5106104;27;20048;-77
2022/01/01 06:45:58;;;;;;;7.97;3.30;;;;;;;2.07;100.00;96559.16;5109335;28;20077;-76
2022/01/01 06:48:23;;;;;;;8.15;2.67;;;;;;;1.96;100.00;96562.25;5106674;28;20092;-75
2022/01/01 06:50:50;;;;;;;5.75;2.70;;;;;;;1.92;100.00;96559.22;5094974;28;20059;-76
2022/01/01 06:53:16;;;;;;;7.18;3.00;;;;;;;1.92;100.00;96561.03;5100700;27;20047;-76
2022/01/01 06:55:41;;;;;;;7.88;3.10;;;;;;;1.89;100.00;96559.59;5108692;27;20047;-77
2022/01/01 06:58:07;;;;;;;7.13;2.90;;;;;;;1.80;100.00;96558.94;5091510;28;20047;-77
2022/01/01 07:00:32;;;;;;;6.45;3.35;;;;;;;1.70;100.00;96558.47;5089597;27;20556;-76
2022/01/01 07:02:58;;;;;;;6.95;3.10;;;;;;;1.89;100.00;96562.19;5109121;27;20044;-76
2022/01/01 07:05:23;;;;;;;6.90;3.00;;;;;;;1.93;100.00;96552.25;5090787;28;20036;-76
2022/01/01 07:07:49;;;;;;;6.80;3.10;;;;;;;1.85;100.00;96559.19;5108537;28;20108;-76
2022/01/01 07:10:14;;;;;;;6.95;3.35;;;;;;;1.92;100.00;96555.84;5107469;28;20039;-76
2022/01/01 07:12:40;;;;;;;9.85;3.63;;;;;;;1.87;100.00;96546.03;5109022;27;20055;-76
2022/01/01 07:15:07;;;;;;;7.00;3.03;;;;;;;1.93;100.00;96549.66;5107470;27;20040;-76
2022/01/01 07:17:33;;;;;;;8.05;3.45;;;;;;;1.97;100.00;96545.66;5101178;28;20493;-77
2022/01/01 07:19:59;;;;;;;7.03;3.38;;;;;;;1.81;100.00;96550.16;5099854;28;20058;-76
2022/01/01 07:22:24;;;;;;;8.95;3.60;;;;;;;1.81;100.00;96549.34;5120368;27;20501;-76
2022/01/01 07:24:50;;;;;;;6.38;3.20;;;;;;;1.79;100.00;96562.50;5091395;28;20409;-76
2022/01/01 07:27:16;;;;;;;8.88;3.60;;;;;;;1.83;100.00;96562.97;5096562;28;20493;-77
2022/01/01 07:29:42;;;;;;;8.82;3.42;;;;;;;2.00;100.00;96558.31;5109724;28;20043;-77
2022/01/01 07:32:08;;;;;;;8.38;3.45;;;;;;;1.93;100.00;96562.63;5090693;28;20044;-76
2022/01/01 07:34:33;;;;;;;8.15;3.90;;;;;;;1.85;100.00;96561.78;5112858;27;20043;-76
2022/01/01 07:36:59;;;;;;;7.28;3.60;;;;;;;1.87;100.00;96564.97;5087706;28;20048;-76
2022/01/01 07:39:25;;;;;;;8.23;3.45;;;;;;;2.05;100.00;96563.72;5111706;27;20118;-76
2022/01/01 07:41:50;;;;;;;9.85;3.25;;;;;;;2.06;100.00;96557.53;5107421;28;20050;-76
2022/01/01 07:44:15;;;;;;;8.85;3.35;;;;;;;1.97;100.00;96553.47;5104609;28;20477;-77
2022/01/01 07:46:41;;;;;;;6.03;3.10;;;;;;;2.09;100.00;96551.97;5098371;28;20038;-76
2022/01/01 07:49:07;;;;;;;7.97;3.45;;;;;;;2.02;100.00;96545.91;5108212;28;20046;-76
2022/01/01 07:51:33;;;;;;;7.70;3.22;;;;;;;1.89;100.00;96552.59;5093248;28;20047;-76
2022/01/01 07:53:59;;;;;;;7.45;3.55;;;;;;;1.93;100.00;96547.06;5106625;28;20120;-76
2022/01/01 07:56:24;;;;;;;7.32;3.50;;;;;;;2.21;100.00;96547.84;5107428;27;20050;-76
2022/01/01 07:58:50;;;;;;;6.95;3.40;;;;;;;2.23;100.00;96543.25;5114571;27;20405;-76
2022/01/01 08:01:16;;;;;;;6.05;3.00;;;;;;;2.25;100.00;96546.47;5110106;28;20039;-76
2022/01/01 08:03:41;;;;;;;11.25;3.28;;;;;;;2.32;100.00;96543.13;5107962;27;20362;-75
2022/01/01 08:06:06;;;;;;;6.10;2.97;;;;;;;3.01;100.00;96539.59;5092991;27;20070;-75
2022/01/01 08:08:32;;;;;;;7.63;3.60;;;;;;;2.97;100.00;96537.59;5091880;28;20118;-75
2022/01/01 08:10:58;;;;;;;9.95;3.60;;;;;;;2.86;100.00;96531.97;5102027;28;20047;-74
2022/01/01 08:13:25;;;;;;;5.78;3.08;;;;;;;2.86;100.00;96531.97;5092247;27;20051;-75
2022/01/01 08:15:52;;;;;;;5.93;3.10;;;;;;;2.90;100.00;96533.19;5110390;27;20043;-75
2022/01/01 08:18:18;;;;;;;10.02;2.80;;;;;;;2.92;100.00;96536.38;5101702;28;20118;-74
2022/01/01 08:20:44;;;;;;;6.43;3.10;;;;;;;2.98;100.00;96539.22;5089844;28;20032;-75
2022/01/01 08:23:11;;;;;;;9.00;3.40;;;;;;;2.98;100.00;96541.81;5104352;27;20043;-74
2022/01/01 08:25:36;;;;;;;6.25;2.88;;;;;;;3.03;100.00;96548.03;5117281;27;20046;-75
2022/01/01 08:28:02;;;;;;;7.15;3.20;;;;;;;3.11;100.00;96549.63;5093554;28;20048;-75
2022/01/01 08:30:28;;;;;;;8.02;2.92;;;;;;;3.22;100.00;96545.66;5107139;28;20040;-76
2022/01/01 08:33:01;;;;;;;8.40;3.30;;;;;;;3.29;100.00;96549.88;5107003;28;20043;-76
2022/01/01 08:35:30;;;;;;;6.53;3.05;;;;;;;3.35;100.00;96555.28;5096055;27;20048;-75
2022/01/01 08:37:56;;;;;;;7.20;3.38;;;;;;;3.46;100.00;96572.91;5101599;27;20983;-75
2022/01/01 08:40:23;;;;;;;8.10;3.60;;;;;;;3.61;100.00;96565.75;5106591;28;20209;-74
2022/01/01 08:42:49;;;;;;;7.15;3.40;;;;;;;3.86;100.00;96567.75;5109729;28;20043;-73
2022/01/01 08:45:15;;;;;;;7.82;3.55;;;;;;;4.05;100.00;96570.56;5106835;28;20543;-74
2022/01/01 08:47:40;;;;;;;7.53;3.40;;;;;;;4.20;100.00;96567.75;5102004;28;20043;-74
2022/01/01 08:50:06;;;;;;;6.97;3.30;;;;;;;4.40;100.00;96572.94;5072130;28;20481;-74
2022/01/01 08:52:32;;;;;;;7.47;3.22;;;;;;;4.60;100.00;96576.28;5099721;28;20050;-74
2022/01/01 08:54:59;;;;;;;7.80;3.50;;;;;;;4.85;98.01;96579.00;5100917;28;20044;-75
2022/01/01 08:57:25;;;;;;;6.18;3.22;;;;;;;4.99;97.78;96582.38;5108232;27;20039;-74
2022/01/01 08:59:52;;;;;;;8.95;3.70;;;;;;;5.19;95.00;96581.50;5129980;27;20043;-75
2022/01/01 09:02:17;;;;;;;8.85;3.63;;;;;;;5.48;93.39;96584.56;5112417;27;20093;-75
2022/01/01 09:04:43;;;;;;;9.57;3.80;;;;;;;5.58;91.72;96584.88;5091998;28;20043;-75
2022/01/01 09:07:09;;;;;;;9.55;3.70;;;;;;;5.68;92.21;96580.00;5107541;28;20085;-74
2022/01/01 09:09:35;;;;;;;6.90;3.40;;;;;;;6.16;89.66;96580.47;5080078;28;20047;-75
2022/01/01 09:12:00;;;;;;;8.75;3.47;;;;;;;6.46;86.32;96577.19;5088938;28;20055;-75
2022/01/01 09:14:26;;;;;;;8.68;3.53;;;;;;;6.61;85.39;96572.41;5070880;28;20455;-74
2022/01/01 09:16:51;;;;;;;9.98;3.53;;;;;;;6.66;86.32;96564.69;5097103;28;20039;-77
2022/01/01 09:19:19;;;;;;;9.55;3.78;;;;;;;6.92;83.44;96568.03;5104249;28;20079;-76
2022/01/01 09:21:45;;;;;;;7.95;3.40;;;;;;;7.09;82.96;96566.41;5070666;28;20428;-75
2022/01/01 09:24:11;;;;;;;7.90;3.42;;;;;;;6.97;83.72;96576.03;5088774;28;20044;-75
2022/01/01 09:26:36;;;;;;;7.15;3.53;;;;;;;6.90;83.58;96570.06;5088795;28;20051;-75
2022/01/01 09:29:04;;;;;;;7.85;3.60;;;;;;;7.00;83.71;96580.81;5101965;28;20044;-75
2022/01/01 09:31:30;;;;;;;7.43;3.70;;;;;;;7.20;83.64;96585.03;5117698;27;20054;-76
2022/01/01 09:33:56;;;;;;;6.43;3.15;;;;;;;7.26;84.30;96584.13;5117097;27;20048;-76
2022/01/01 09:36:21;;;;;;;9.23;3.65;;;;;;;7.53;82.15;96583.75;5089329;28;20048;-78
2022/01/01 09:38:47;;;;;;;6.47;3.17;;;;;;;7.74;79.83;96591.13;5104808;28;20503;-78
2022/01/01 09:41:15;;;;;;;7.13;3.50;;;;;;;8.03;79.63;96587.84;5108554;28;20519;-78
2022/01/01 09:43:41;;;;;;;8.10;3.38;;;;;;;8.10;79.39;96588.53;5120306;27;20089;-77
2022/01/01 09:46:08;;;;;;;6.75;3.70;;;;;;;8.33;76.28;96593.00;5098575;28;20039;-78
2022/01/01 09:48:34;;;;;;;6.60;3.00;;;;;;;9.32;71.25;96588.75;5090447;28;20130;-78
2022/01/01 09:51:02;;;;;;;7.10;3.40;;;;;;;10.86;65.80;96596.47;5104672;28;20035;-77
2022/01/01 09:53:29;;;;;;;6.80;3.40;;;;;;;11.73;63.26;96585.28;5108718;27;20098;-78
2022/01/01 09:55:57;;;;;;;5.32;2.90;;;;;;;12.60;60.36;96585.94;5105353;27;20044;-77
2022/01/01 09:58:26;;;;;;;7.10;3.30;;;;;;;12.95;56.94;96586.41;5098310;28;20035;-78
2022/01/01 10:00:52;;;;;;;5.82;3.30;;;;;;;13.80;57.81;96580.03;5113124;28;20074;-79
2022/01/01 10:03:33;;;;;;;6.13;3.20;;;;;;;14.47;55.76;96577.38;5109336;28;20035;-78
2022/01/01 10:06:14;;;;;;;7.10;3.25;;;;;;;14.89;53.43;96578.88;5106112;27;20040;-78
2022/01/01 10:08:41;;;;;;;6.88;3.30;;;;;;;15.46;51.81;96574.09;5102558;28;20459;-76
2022/01/01 10:11:08;;;;;;;7.95;3.20;;;;;;;15.03;54.13;96590.47;5105124;28;20044;-76
2022/01/01 10:13:38;;;;;;;8.77;3.58;;;;;;;15.38;51.18;96591.38;5112225;28;20397;-76
2022/01/01 10:16:07;;;;;;;5.35;3.03;;;;;;;15.68;49.67;96584.31;5100541;28;20128;-76
2022/01/01 10:18:35;;;;;;;6.65;3.20;;;;;;;15.51;50.33;96578.59;5109412;28;20043;-76
2022/01/01 10:21:08;;;;;;;6.88;3.28;;;;;;;15.67;49.13;96572.09;5111697;28;20537;-76
2022/01/01 10:23:35;;;;;;;5.55;2.95;;;;;;;16.28;47.72;96570.09;5111744;28;20040;-78
2022/01/01 10:29:07;;;;;;;5.18;2.80;;;;;;;16.68;45.94;96568.09;5105653;28;20096;-76
2022/01/01 10:31:34;;;;;;;6.68;3.00;;;;;;;16.85;45.26;96566.84;5107102;28;20105;-76
2022/01/01 10:34:00;;;;;;;5.25;3.05;;;;;;;17.34;44.62;96568.41;5108500;28;20044;-76
2022/01/01 10:36:29;;;;;;;4.20;2.65;;;;;;;17.46;45.82;96576.75;5094200;28;20040;-75
2022/01/01 10:39:09;;;;;;;6.07;2.70;;;;;;;17.61;45.86;96567.78;5096514;28;20043;-76
2022/01/01 10:41:46;;;;;;;5.20;2.72;;;;;;;18.09;42.88;96572.13;5097251;28;20036;-78
2022/01/01 10:44:12;;;;;;;6.15;2.80;;;;;;;17.91;43.71;96564.97;5098347;28;20032;-77
2022/01/01 10:46:38;;;;;;;10.52;3.22;;;;;;;18.41;42.59;96557.19;5102752;28;20042;-78
2022/01/01 10:50:03;;;;;;;15.18;3.30;;;;;;;18.89;42.42;96549.94;5100187;28;20093;-77
2022/01/01 10:52:18;;;;;;;7.88;3.30;;;;;;;18.55;43.59;96545.75;5100654;28;20528;-78
2022/01/01 10:54:52;;;;;;;5.78;2.92;;;;;;;19.08;40.92;96547.97;5107817;27;20047;-76
2022/01/01 10:57:35;;;;;;;5.38;2.67;;;;;;;19.37;42.27;96546.81;5094423;28;20036;-77
2022/01/01 11:00:20;;;;;;;5.70;2.55;;;;;;;18.10;41.19;96541.75;5113394;27;20039;-79
2022/01/01 11:02:49;;;;;;;;;;;;;;;19.10;41.09;96540.44;5101883;28;20043;-78
2022/01/01 11:05:15;;;;;;;6.00;2.60;;;;;;;19.71;40.62;96532.16;5106796;28;19920;-77
2022/01/01 11:07:50;;;;;;;4.38;2.55;;;;;;;19.77;39.46;96525.63;5099573;28;20042;-77
2022/01/01 11:10:17;;;;;;;5.13;2.70;;;;;;;19.65;39.89;96517.34;5097204;28;20035;-77
2022/01/01 11:12:43;;;;;;;4.88;2.30;;;;;;;19.71;39.72;96513.47;5096763;28;20506;-77
2022/01/01 11:15:10;;;;;;;7.03;2.60;;;;;;;20.47;40.78;96520.69;5109149;28;20050;-77
2022/01/01 11:17:36;;;;;;;5.10;2.65;;;;;;;19.84;40.32;96520.66;5106099;28;20566;-78
2022/01/01 11:20:03;;;;;;;5.95;2.40;;;;;;;19.92;42.17;96521.03;5105134;28;20040;-78
2022/01/01 11:22:29;;;;;;;5.28;2.50;;;;;;;20.03;38.75;96517.03;5093359;28;20031;-78
2022/01/01 11:24:55;;;;;;;5.13;2.53;;;;;;;20.88;38.22;96508.88;5097844;28;20482;-78
2022/01/01 11:27:24;;;;;;;5.60;2.80;;;;;;;20.94;39.45;96513.00;5099393;28;20047;-79
2022/01/01 11:29:50;;;;;;;5.38;2.45;;;;;;;19.39;39.19;96507.25;5103901;28;20123;-78
2022/01/01 11:32:20;;;;;;;4.70;2.60;;;;;;;20.77;38.23;96502.25;5114820;28;20039;-77
2022/01/01 11:34:49;;;;;;;4.95;2.50;;;;;;;19.81;40.79;96510.59;5096710;27;20040;-78
2022/01/01 11:37:15;;;;;;;6.22;2.35;;;;;;;20.24;39.18;96507.38;5125924;27;20138;-77
2022/01/01 11:39:42;;;;;;;4.00;2.33;;;;;;;20.84;40.14;96502.59;5093258;28;20052;-79